Elba, Idaho
Current Conditions -  °F | °C
As of 8:53 AM on Sunday 25 Jan 2015 (Local Time) from KBYI Reporting Station
Clear Clear  
Wind Chill: -2°   Ceiling: Unl
Heat Index:   Visibility: 8mi
Dew Point: -1°   Wind: 5mph
Humidity: 89%   Direction: 50°NE
Pressure: 30.42"   Gusts: NA
Location:  42.25°N, 113.56°W
Report Text: KBYI 251553Z AUTO 05004KT 8SM CLR 01/M01 A3042 RMK AO2 SLP318 T00061011
Loading
Personal Weather Stations






























Interactive Weather Map New forecast layout! Learn more

10-Day Weather Forecast

Advertisements
Track Severe Weather on mobile